createdAt,value
2018-12-27T00:00:40.672Z,100.00
2018-12-27T00:03:47.602Z,99.76
2018-12-27T00:06:54.473Z,99.94
2018-12-27T00:10:01.458Z,99.88
2018-12-27T00:13:08.415Z,100.00
2018-12-27T00:16:15.383Z,100.00
2018-12-27T00:19:22.300Z,100.00
2018-12-27T00:22:29.559Z,99.88
2018-12-27T00:25:36.488Z,99.62
2018-12-27T00:28:45.739Z,99.32
2018-12-27T00:31:52.796Z,99.78
2018-12-27T00:34:59.951Z,99.43
2018-12-27T00:38:07.081Z,100.00
2018-12-27T00:41:14.176Z,99.70
2018-12-27T00:44:21.390Z,100.00
2018-12-27T00:47:28.411Z,99.87
2018-12-27T00:50:35.530Z,99.94
2018-12-27T00:53:45.155Z,99.96
2018-12-27T00:56:52.112Z,99.79
2018-12-27T00:59:59.106Z,99.97
2018-12-27T01:03:11.064Z,99.79
2018-12-27T01:06:15.395Z,99.93
2018-12-27T01:09:22.353Z,99.77
2018-12-27T01:12:29.379Z,100.00
2018-12-27T01:15:36.576Z,99.91
2018-12-27T01:18:44.018Z,100.00
2018-12-27T01:21:51.268Z,100.00
2018-12-27T01:24:58.723Z,100.00
2018-12-27T01:28:05.933Z,99.76
2018-12-27T01:31:13.150Z,100.00
2018-12-27T01:34:20.316Z,100.00
2018-12-27T01:37:27.261Z,100.00
2018-12-27T01:40:37.240Z,100.00
2018-12-27T01:43:44.517Z,100.00
2018-12-27T01:46:51.796Z,99.93
2018-12-27T01:49:58.828Z,99.83
2018-12-27T01:53:06.024Z,100.00
2018-12-27T01:56:13.054Z,100.00
2018-12-27T01:59:20.140Z,99.57
2018-12-27T02:02:26.987Z,99.65
2018-12-27T02:05:34.130Z,99.85
2018-12-27T02:08:41.531Z,99.79
2018-12-27T02:11:48.706Z,99.60
2018-12-27T02:14:55.823Z,99.70
2018-12-27T02:18:02.911Z,100.00
2018-12-27T02:21:10.183Z,100.00
2018-12-27T02:24:17.382Z,100.00
2018-12-27T02:27:25.044Z,99.89
2018-12-27T02:30:32.172Z,100.00
2018-12-27T02:33:40.576Z,99.79
2018-12-27T02:36:47.577Z,99.92
2018-12-27T02:39:55.014Z,100.00
2018-12-27T02:43:02.125Z,100.00
2018-12-27T02:46:09.139Z,99.83
2018-12-27T02:49:16.411Z,100.00
2018-12-27T02:52:23.536Z,99.95
2018-12-27T02:55:30.649Z,99.93
2018-12-27T02:58:37.845Z,100.00
2018-12-27T03:01:45.189Z,99.68
2018-12-27T03:04:52.445Z,99.50
2018-12-27T03:07:59.613Z,99.57
2018-12-27T03:11:06.727Z,99.71
2018-12-27T03:14:14.001Z,99.56
2018-12-27T03:17:21.074Z,99.41
2018-12-27T03:20:28.414Z,99.67
2018-12-27T03:23:35.722Z,99.84
2018-12-27T03:26:43.509Z,100.00
2018-12-27T03:29:51.369Z,100.00
2018-12-27T03:32:58.788Z,99.98
2018-12-27T03:36:05.951Z,100.00
2018-12-27T03:39:13.350Z,99.99
2018-12-27T03:42:20.472Z,100.00
2018-12-27T03:45:27.587Z,100.00
2018-12-27T03:48:34.900Z,100.00
2018-12-27T03:51:43.350Z,100.00
2018-12-27T03:54:50.678Z,99.88
2018-12-27T03:57:57.749Z,100.00
2018-12-27T04:01:05.133Z,100.00
2018-12-27T04:04:12.280Z,100.00
2018-12-27T04:07:19.329Z,100.00
2018-12-27T04:10:26.467Z,99.81
2018-12-27T04:13:33.823Z,100.00
2018-12-27T04:16:40.878Z,99.99
2018-12-27T04:19:47.601Z,100.00
2018-12-27T04:22:54.570Z,100.00
2018-12-27T04:26:02.131Z,100.00
2018-12-27T04:29:09.145Z,99.77
2018-12-27T04:32:16.206Z,99.71
2018-12-27T04:35:23.746Z,99.80
2018-12-27T04:38:31.771Z,99.94
2018-12-27T04:41:39.499Z,99.70
2018-12-27T04:44:46.929Z,99.43
2018-12-27T04:47:53.923Z,99.41
2018-12-27T04:51:00.868Z,99.22
2018-12-27T04:54:07.759Z,99.54
2018-12-27T04:57:14.679Z,99.41
2018-12-27T05:00:21.849Z,99.37
2018-12-27T05:03:28.844Z,99.74
2018-12-27T05:06:35.753Z,99.54
2018-12-27T05:09:45.803Z,99.61
2018-12-27T05:12:53.026Z,99.78
2018-12-27T05:15:59.789Z,100.00
2018-12-27T05:19:07.165Z,100.00
2018-12-27T05:22:13.950Z,100.00
2018-12-27T05:25:21.149Z,100.00
2018-12-27T05:28:28.155Z,100.00
2018-12-27T05:31:35.048Z,99.85
2018-12-27T05:34:44.181Z,100.00
2018-12-27T05:37:51.328Z,100.00
2018-12-27T05:40:58.339Z,100.00
2018-12-27T05:44:05.225Z,100.00
2018-12-27T05:47:12.184Z,100.00
2018-12-27T05:50:19.096Z,100.00
2018-12-27T05:53:26.328Z,100.00
2018-12-27T05:56:33.267Z,100.00
2018-12-27T05:59:41.059Z,100.00
2018-12-27T06:02:48.097Z,100.00
2018-12-27T06:05:55.027Z,100.00
2018-12-27T06:09:01.929Z,100.00
2018-12-27T06:12:09.149Z,100.00
2018-12-27T06:15:16.097Z,100.00
2018-12-27T06:18:22.813Z,100.00
2018-12-27T06:21:29.506Z,100.00
2018-12-27T06:24:36.555Z,100.00
2018-12-27T06:27:45.927Z,100.00
2018-12-27T06:30:52.945Z,100.00
2018-12-27T06:34:00.030Z,100.00
2018-12-27T06:37:07.219Z,100.00
2018-12-27T06:40:13.950Z,100.00
2018-12-27T06:43:20.843Z,100.00
2018-12-27T06:46:27.983Z,100.00
2018-12-27T06:49:34.946Z,100.00
2018-12-27T06:52:44.646Z,100.00
2018-12-27T06:55:51.354Z,100.00
2018-12-27T06:58:58.402Z,100.00
2018-12-27T07:02:05.325Z,100.00
2018-12-27T07:05:12.273Z,100.00
2018-12-27T07:08:19.209Z,100.00
2018-12-27T07:11:26.471Z,100.00
2018-12-27T07:14:33.466Z,100.00
2018-12-27T07:17:42.670Z,100.00
2018-12-27T07:20:49.931Z,100.00
2018-12-27T07:23:56.658Z,99.73
2018-12-27T07:27:03.643Z,99.00
2018-12-27T07:30:10.312Z,98.04
2018-12-27T07:33:17.285Z,97.72
2018-12-27T07:36:24.325Z,97.77
2018-12-27T07:39:31.513Z,97.76
2018-12-27T07:42:39.905Z,97.64
2018-12-27T07:45:46.907Z,97.72
2018-12-27T07:48:54.142Z,97.75
2018-12-27T07:52:01.217Z,97.72
2018-12-27T07:55:08.128Z,97.38
2018-12-27T07:58:15.047Z,97.46
2018-12-27T08:01:21.942Z,97.55
2018-12-27T08:04:28.884Z,96.96
2018-12-27T08:07:37.470Z,97.13
2018-12-27T08:10:48.197Z,97.65
2018-12-27T08:13:55.089Z,97.57
2018-12-27T08:17:02.008Z,97.14
2018-12-27T08:20:09.153Z,97.27
2018-12-27T08:23:16.139Z,97.29
2018-12-27T08:26:23.072Z,96.87
2018-12-27T08:29:29.761Z,96.92
2018-12-27T08:32:36.717Z,96.52
2018-12-27T08:35:46.578Z,96.62
2018-12-27T08:38:53.796Z,96.47
2018-12-27T08:42:01.322Z,95.59
2018-12-27T08:45:08.313Z,96.21
2018-12-27T08:48:15.333Z,96.31
2018-12-27T08:51:21.990Z,96.28
2018-12-27T08:54:29.278Z,95.83
2018-12-27T08:57:36.307Z,94.52
2018-12-27T09:00:45.156Z,94.61
2018-12-27T09:03:54.252Z,94.50
2018-12-27T09:07:01.345Z,94.05
2018-12-27T09:10:15.594Z,94.38
2018-12-27T09:13:24.963Z,94.48
2018-12-27T09:16:38.077Z,94.37
2018-12-27T09:19:47.289Z,93.84
2018-12-27T09:22:56.291Z,93.33
2018-12-27T09:26:06.327Z,92.80
2018-12-27T09:29:13.319Z,93.52
2018-12-27T09:32:20.343Z,93.61
2018-12-27T09:35:27.012Z,93.10
2018-12-27T09:38:34.034Z,93.31
2018-12-27T09:41:41.017Z,92.20
2018-12-27T09:44:48.136Z,92.76
2018-12-27T09:47:58.110Z,91.89
2018-12-27T09:51:05.155Z,92.48
2018-12-27T09:54:12.185Z,92.48
2018-12-27T09:57:18.957Z,92.92
2018-12-27T10:00:28.031Z,92.30
2018-12-27T10:03:38.322Z,93.44
2018-12-27T10:06:50.273Z,92.88
2018-12-27T10:09:57.302Z,92.49
2018-12-27T10:13:04.001Z,92.54
2018-12-27T10:16:10.807Z,92.19
2018-12-27T10:19:17.792Z,92.55
2018-12-27T10:22:24.506Z,92.16
2018-12-27T10:25:31.448Z,92.35
2018-12-27T10:28:39.420Z,91.76
2018-12-27T10:31:46.579Z,91.53
2018-12-27T10:34:53.500Z,92.19
2018-12-27T10:38:00.642Z,92.55
2018-12-27T10:41:07.676Z,91.92
2018-12-27T10:44:14.467Z,91.55
2018-12-27T10:47:23.101Z,92.02
2018-12-27T10:50:30.119Z,90.99
2018-12-27T10:53:36.886Z,91.06
2018-12-27T10:56:52.395Z,91.34
2018-12-27T10:59:59.693Z,90.80
2018-12-27T11:03:07.975Z,90.66
2018-12-27T11:06:15.961Z,90.80
2018-12-27T11:09:23.174Z,90.02
2018-12-27T11:12:30.319Z,90.14
2018-12-27T11:15:37.768Z,90.03
2018-12-27T11:18:46.129Z,90.59
2018-12-27T11:21:53.115Z,90.06
2018-12-27T11:25:00.363Z,89.71
2018-12-27T11:28:07.317Z,90.13
2018-12-27T11:31:14.077Z,90.15
2018-12-27T11:34:21.046Z,90.03
2018-12-27T11:37:27.783Z,89.51
2018-12-27T11:40:34.825Z,89.19
2018-12-27T11:43:43.978Z,89.04
2018-12-27T11:46:50.863Z,89.39
2018-12-27T11:49:58.555Z,88.96
2018-12-27T11:53:05.455Z,88.81
2018-12-27T11:56:12.789Z,88.93
2018-12-27T11:59:19.797Z,88.36
2018-12-27T12:02:31.062Z,88.83
2018-12-27T12:05:34.959Z,87.66
2018-12-27T12:08:44.277Z,87.44
2018-12-27T12:11:51.255Z,87.03
2018-12-27T12:14:58.054Z,87.17
2018-12-27T12:18:05.071Z,87.10
2018-12-27T12:21:11.780Z,87.05
2018-12-27T12:24:18.879Z,86.55
2018-12-27T12:27:25.799Z,86.53
2018-12-27T12:30:32.727Z,86.59
2018-12-27T12:33:39.956Z,86.25
2018-12-27T12:36:46.925Z,85.66
2018-12-27T12:39:53.957Z,86.35
2018-12-27T12:43:00.939Z,85.38
2018-12-27T12:46:08.015Z,84.90
2018-12-27T12:49:14.915Z,84.96
2018-12-27T12:52:22.118Z,84.26
2018-12-27T12:55:29.158Z,84.70
2018-12-27T12:58:36.165Z,84.32
2018-12-27T13:01:43.720Z,84.94
2018-12-27T13:04:50.843Z,84.44
2018-12-27T13:07:57.815Z,83.52
2018-12-27T13:11:05.904Z,83.65
2018-12-27T13:14:13.902Z,83.50
2018-12-27T13:17:20.944Z,84.24
2018-12-27T13:20:28.095Z,83.62
2018-12-27T13:23:35.203Z,84.64
2018-12-27T13:26:44.840Z,84.08
2018-12-27T13:29:51.905Z,77.24
2018-12-27T13:32:58.692Z,81.79
2018-12-27T13:36:05.878Z,80.66
2018-12-27T13:39:12.980Z,76.32
2018-12-27T13:42:20.128Z,77.45
2018-12-27T13:45:27.087Z,82.63
2018-12-27T13:48:34.112Z,79.23
2018-12-27T13:51:43.530Z,79.98
2018-12-27T13:54:51.148Z,82.20
2018-12-27T13:57:58.077Z,81.93
2018-12-27T14:01:05.106Z,79.80
2018-12-27T14:04:12.350Z,81.15
2018-12-27T14:07:19.508Z,81.35
2018-12-27T14:10:26.409Z,81.92
2018-12-27T14:13:33.236Z,82.13
2018-12-27T14:16:39.954Z,82.29
2018-12-27T14:19:57.860Z,82.47
2018-12-27T14:23:04.675Z,83.11
2018-12-27T14:26:11.720Z,84.55
2018-12-27T14:29:18.499Z,84.85
2018-12-27T14:32:25.279Z,85.53
2018-12-27T14:35:32.244Z,86.05
2018-12-27T14:38:39.400Z,86.17
2018-12-27T14:41:46.277Z,87.04
2018-12-27T14:44:53.331Z,86.87
2018-12-27T14:48:00.028Z,87.74
2018-12-27T14:51:06.985Z,88.47
2018-12-27T14:54:14.069Z,88.34
2018-12-27T14:57:21.578Z,87.98
2018-12-27T15:00:28.520Z,89.17
2018-12-27T15:03:35.468Z,88.70
2018-12-27T15:06:47.178Z,88.67
2018-12-27T15:09:59.751Z,89.06
2018-12-27T15:13:08.185Z,88.83
2018-12-27T15:16:16.975Z,88.94
2018-12-27T15:19:23.887Z,89.66
2018-12-27T15:22:30.662Z,89.94
2018-12-27T15:25:37.970Z,89.95
2018-12-27T15:28:46.139Z,90.10
2018-12-27T15:31:53.091Z,90.04
2018-12-27T15:35:02.796Z,90.51
2018-12-27T15:38:09.777Z,89.97
2018-12-27T15:41:16.942Z,90.74
2018-12-27T15:44:24.052Z,91.16
2018-12-27T15:47:31.173Z,91.25
2018-12-27T15:50:38.219Z,90.63
2018-12-27T15:53:46.448Z,91.02
2018-12-27T15:56:54.551Z,91.14
2018-12-27T16:00:02.155Z,91.71
2018-12-27T16:03:08.818Z,91.13
2018-12-27T16:06:15.744Z,91.21
2018-12-27T16:09:23.279Z,91.35
2018-12-27T16:12:30.261Z,92.07
2018-12-27T16:15:37.514Z,92.25
2018-12-27T16:18:44.378Z,92.13
2018-12-27T16:21:51.304Z,91.81
2018-12-27T16:24:58.028Z,92.15
2018-12-27T16:28:05.122Z,92.59
2018-12-27T16:31:12.037Z,92.95
2018-12-27T16:34:18.987Z,92.64
2018-12-27T16:37:25.939Z,92.20
2018-12-27T16:40:33.129Z,92.29
2018-12-27T16:43:42.709Z,93.07
2018-12-27T16:46:49.754Z,92.66
2018-12-27T16:49:56.754Z,92.53
2018-12-27T16:53:03.427Z,90.10
2018-12-27T16:56:10.447Z,88.52
2018-12-27T16:59:17.865Z,87.92
2018-12-27T17:02:26.131Z,88.87
2018-12-27T17:05:32.989Z,88.11
2018-12-27T17:08:40.881Z,88.73
2018-12-27T17:11:47.688Z,90.56
2018-12-27T17:14:54.464Z,91.08
2018-12-27T17:18:01.289Z,90.10
2018-12-27T17:21:08.291Z,89.88
2018-12-27T17:24:15.210Z,88.41
2018-12-27T17:27:22.618Z,88.51
2018-12-27T17:30:29.626Z,88.73
2018-12-27T17:33:36.649Z,90.44
2018-12-27T17:36:43.608Z,89.62
2018-12-27T17:39:50.580Z,88.54
2018-12-27T17:42:57.712Z,88.33
2018-12-27T17:46:06.191Z,90.06
2018-12-27T17:49:13.076Z,89.46
2018-12-27T17:52:20.132Z,88.96
2018-12-27T17:55:27.174Z,89.02
2018-12-27T17:58:34.545Z,89.29
2018-12-27T18:01:44.127Z,88.67
2018-12-27T18:04:51.452Z,91.38
2018-12-27T18:07:58.797Z,90.97
2018-12-27T18:11:12.194Z,90.12
2018-12-27T18:14:20.067Z,89.31
2018-12-27T18:17:27.594Z,90.25
2018-12-27T18:20:34.770Z,89.94
2018-12-27T18:23:44.547Z,90.96
2018-12-27T18:26:51.817Z,90.16
2018-12-27T18:29:58.801Z,90.88
2018-12-27T18:33:05.453Z,90.09
2018-12-27T18:36:12.464Z,89.58
2018-12-27T18:39:19.425Z,88.19
2018-12-27T18:42:26.356Z,88.34
2018-12-27T18:45:33.415Z,88.69
2018-12-27T18:48:44.287Z,88.59
2018-12-27T18:51:52.161Z,91.98
2018-12-27T18:54:59.379Z,90.62
2018-12-27T18:58:06.630Z,90.67
2018-12-27T19:01:18.008Z,90.31
2018-12-27T19:04:25.020Z,90.32
2018-12-27T19:07:32.225Z,88.77
2018-12-27T19:10:39.251Z,89.59
2018-12-27T19:13:46.867Z,90.80
2018-12-27T19:16:53.783Z,89.25
2018-12-27T19:20:00.865Z,90.20
2018-12-27T19:23:18.319Z,89.69
2018-12-27T19:26:25.273Z,90.67
2018-12-27T19:29:32.172Z,90.89
2018-12-27T19:32:42.174Z,91.88
2018-12-27T19:35:48.881Z,89.77
2018-12-27T19:38:56.090Z,91.13
2018-12-27T19:42:03.084Z,91.01
2018-12-27T19:45:10.777Z,89.99
2018-12-27T19:48:18.345Z,90.80
2018-12-27T19:51:26.281Z,90.96
2018-12-27T19:54:37.087Z,89.96
2018-12-27T19:57:44.220Z,89.69
2018-12-27T20:00:51.090Z,91.28
2018-12-27T20:03:57.942Z,91.71
2018-12-27T20:07:07.496Z,91.99
2018-12-27T20:10:14.684Z,90.23
2018-12-27T20:13:21.747Z,90.58
2018-12-27T20:16:29.197Z,92.56
2018-12-27T20:19:36.328Z,91.22
2018-12-27T20:22:43.449Z,92.28
2018-12-27T20:25:50.489Z,90.71
2018-12-27T20:28:57.586Z,91.08
2018-12-27T20:32:04.651Z,91.38
2018-12-27T20:35:11.682Z,91.94
2018-12-27T20:38:18.733Z,92.29
2018-12-27T20:41:25.757Z,91.23
2018-12-27T20:44:32.795Z,91.00
2018-12-27T20:47:41.973Z,89.68
2018-12-27T20:50:49.157Z,90.86
2018-12-27T20:53:56.353Z,92.05
2018-12-27T20:57:05.391Z,92.69
2018-12-27T21:00:12.909Z,92.68
2018-12-27T21:03:19.904Z,92.57
2018-12-27T21:06:26.766Z,92.23
2018-12-27T21:09:33.836Z,92.61
2018-12-27T21:12:40.935Z,91.33
2018-12-27T21:15:47.903Z,93.70
2018-12-27T21:18:54.873Z,92.21
2018-12-27T21:22:02.235Z,92.47
2018-12-27T21:25:10.985Z,91.53
2018-12-27T21:28:17.752Z,92.19
2018-12-27T21:34:54.909Z,91.42
2018-12-27T21:38:01.642Z,92.17
2018-12-27T21:41:09.032Z,91.21
2018-12-27T21:44:15.848Z,92.00
2018-12-27T21:47:22.611Z,92.58
2018-12-27T21:50:33.767Z,91.55
2018-12-27T21:53:42.641Z,92.92
2018-12-27T21:56:49.701Z,93.20
2018-12-27T21:59:56.809Z,93.43
2018-12-27T22:03:03.809Z,94.87
2018-12-27T22:06:14.262Z,92.84
2018-12-27T22:09:21.321Z,92.58
2018-12-27T22:12:28.544Z,93.03
2018-12-27T22:15:36.422Z,92.38
2018-12-27T22:18:47.935Z,93.04
2018-12-27T22:21:55.091Z,93.47
2018-12-27T22:25:05.168Z,94.28
2018-12-27T22:28:21.388Z,93.55
2018-12-27T22:31:23.821Z,94.96
2018-12-27T22:34:31.003Z,94.76
2018-12-27T22:37:40.717Z,94.30
2018-12-27T22:40:47.571Z,93.09
2018-12-27T22:43:54.520Z,93.42
2018-12-27T22:47:01.262Z,93.38
2018-12-27T22:50:08.491Z,92.63
2018-12-27T22:53:15.420Z,92.55
2018-12-27T22:56:22.288Z,92.77
2018-12-27T22:59:29.211Z,92.88
2018-12-27T23:02:42.605Z,92.77
2018-12-27T23:05:49.955Z,93.01
2018-12-27T23:08:56.895Z,93.51
2018-12-27T23:12:04.161Z,94.87
2018-12-27T23:15:11.190Z,94.03
2018-12-27T23:18:18.843Z,93.14
2018-12-27T23:21:25.630Z,93.39
2018-12-27T23:24:32.320Z,92.87
2018-12-27T23:27:40.902Z,94.15
2018-12-27T23:30:47.871Z,93.65
2018-12-27T23:33:54.844Z,93.36
2018-12-27T23:37:01.499Z,92.93
2018-12-27T23:40:08.724Z,93.67
2018-12-27T23:43:15.657Z,93.86
2018-12-27T23:46:22.603Z,93.58
2018-12-27T23:49:29.799Z,93.03
2018-12-27T23:52:36.825Z,93.40
2018-12-27T23:55:43.779Z,93.29
2018-12-27T23:58:50.730Z,93.38
